Terminal Aerodrome Forecast
Issued by NWS

Home | Current Version | Previous Version | Graphics & Text | Print | Product List | Glossary On
Versions: 1 2 3 4 5 6 7 8 9 10 11 12 13 14 15 16 17 18 19 20
717
FTUS43 KBIS 270424 AAB
TAFJMS
TAF AMD
KJMS 270424Z 2704/2724 07003KT P6SM VCSH OVC030
      TEMPO 2704/2708 OVC040
     FM271300 07013KT P6SM VCSH OVC035
     FM271500 07017G25KT P6SM BKN080=

USA.gov is the U.S. government's official web portal to all federal, state and local government web resources and services.